sensor_id;sensor_type;location;lat;lon;timestamp;P1;durP1;ratioP1;P2;durP2;ratioP2
36189;SDS011;22232;50.914;13.858;2023-04-15T00:01:57;0.95;;;0.80;;
36189;SDS011;22232;50.914;13.858;2023-04-15T00:04:26;1.48;;;1.38;;
36189;SDS011;22232;50.914;13.858;2023-04-15T00:06:54;1.60;;;1.10;;
36189;SDS011;22232;50.914;13.858;2023-04-15T00:09:21;1.30;;;1.20;;
36189;SDS011;22232;50.914;13.858;2023-04-15T00:11:50;1.58;;;1.30;;
36189;SDS011;22232;50.914;13.858;2023-04-15T00:14:17;1.17;;;1.02;;
36189;SDS011;22232;50.914;13.858;2023-04-15T00:16:44;1.20;;;1.10;;
36189;SDS011;22232;50.914;13.858;2023-04-15T00:19:12;1.40;;;1.23;;
36189;SDS011;22232;50.914;13.858;2023-04-15T00:21:40;1.20;;;1.10;;
36189;SDS011;22232;50.914;13.858;2023-04-15T00:24:08;1.10;;;1.00;;
36189;SDS011;22232;50.914;13.858;2023-04-15T00:26:35;1.35;;;1.20;;
36189;SDS011;22232;50.914;13.858;2023-04-15T00:29:03;1.25;;;1.05;;
36189;SDS011;22232;50.914;13.858;2023-04-15T00:31:30;1.20;;;1.00;;
36189;SDS011;22232;50.914;13.858;2023-04-15T00:33:59;0.93;;;0.90;;
36189;SDS011;22232;50.914;13.858;2023-04-15T00:36:26;1.30;;;1.20;;
36189;SDS011;22232;50.914;13.858;2023-04-15T00:38:54;0.93;;;0.93;;
36189;SDS011;22232;50.914;13.858;2023-04-15T00:41:21;1.25;;;1.10;;
36189;SDS011;22232;50.914;13.858;2023-04-15T00:43:50;1.08;;;0.90;;
36189;SDS011;22232;50.914;13.858;2023-04-15T00:46:17;1.20;;;0.88;;
36189;SDS011;22232;50.914;13.858;2023-04-15T00:48:47;1.20;;;1.10;;
36189;SDS011;22232;50.914;13.858;2023-04-15T00:51:16;1.20;;;1.10;;
36189;SDS011;22232;50.914;13.858;2023-04-15T00:53:44;1.25;;;1.15;;
36189;SDS011;22232;50.914;13.858;2023-04-15T00:56:11;1.02;;;0.93;;
36189;SDS011;22232;50.914;13.858;2023-04-15T00:58:40;1.20;;;1.10;;
36189;SDS011;22232;50.914;13.858;2023-04-15T01:01:08;1.27;;;1.17;;
36189;SDS011;22232;50.914;13.858;2023-04-15T01:03:36;1.63;;;1.15;;
36189;SDS011;22232;50.914;13.858;2023-04-15T01:06:04;1.92;;;1.40;;
36189;SDS011;22232;50.914;13.858;2023-04-15T01:08:31;1.45;;;1.20;;
36189;SDS011;22232;50.914;13.858;2023-04-15T01:11:00;1.30;;;1.20;;
36189;SDS011;22232;50.914;13.858;2023-04-15T01:13:29;1.30;;;1.20;;
36189;SDS011;22232;50.914;13.858;2023-04-15T01:15:59;1.30;;;1.20;;
36189;SDS011;22232;50.914;13.858;2023-04-15T01:18:29;2.45;;;1.33;;
36189;SDS011;22232;50.914;13.858;2023-04-15T01:20:59;1.50;;;1.40;;
36189;SDS011;22232;50.914;13.858;2023-04-15T01:23:28;1.75;;;1.27;;
36189;SDS011;22232;50.914;13.858;2023-04-15T01:25:56;1.13;;;1.02;;
36189;SDS011;22232;50.914;13.858;2023-04-15T01:28:25;1.48;;;1.38;;
36189;SDS011;22232;50.914;13.858;2023-04-15T01:31:06;1.75;;;1.25;;
36189;SDS011;22232;50.914;13.858;2023-04-15T01:33:41;1.70;;;1.55;;
36189;SDS011;22232;50.914;13.858;2023-04-15T01:36:09;1.80;;;1.67;;
36189;SDS011;22232;50.914;13.858;2023-04-15T01:38:37;1.80;;;1.55;;
36189;SDS011;22232;50.914;13.858;2023-04-15T01:41:05;2.30;;;1.90;;
36189;SDS011;22232;50.914;13.858;2023-04-15T01:43:34;1.77;;;1.67;;
36189;SDS011;22232;50.914;13.858;2023-04-15T01:46:05;3.03;;;2.30;;
36189;SDS011;22232;50.914;13.858;2023-04-15T01:48:33;1.80;;;1.65;;
36189;SDS011;22232;50.914;13.858;2023-04-15T01:51:02;2.55;;;2.10;;
36189;SDS011;22232;50.914;13.858;2023-04-15T01:53:30;2.08;;;1.88;;
36189;SDS011;22232;50.914;13.858;2023-04-15T01:55:57;2.22;;;2.03;;
36189;SDS011;22232;50.914;13.858;2023-04-15T01:58:25;2.78;;;2.25;;
36189;SDS011;22232;50.914;13.858;2023-04-15T02:00:53;3.10;;;2.30;;
36189;SDS011;22232;50.914;13.858;2023-04-15T02:03:21;2.40;;;2.13;;
36189;SDS011;22232;50.914;13.858;2023-04-15T02:05:51;3.03;;;2.25;;
36189;SDS011;22232;50.914;13.858;2023-04-15T02:08:20;2.60;;;2.40;;
36189;SDS011;22232;50.914;13.858;2023-04-15T02:10:47;6.05;;;2.67;;
36189;SDS011;22232;50.914;13.858;2023-04-15T02:13:15;5.28;;;2.45;;
36189;SDS011;22232;50.914;13.858;2023-04-15T02:15:49;4.18;;;2.90;;
36189;SDS011;22232;50.914;13.858;2023-04-15T02:18:18;2.50;;;2.30;;
36189;SDS011;22232;50.914;13.858;2023-04-15T02:20:46;2.97;;;2.30;;
36189;SDS011;22232;50.914;13.858;2023-04-15T02:23:14;3.05;;;2.55;;
36189;SDS011;22232;50.914;13.858;2023-04-15T02:25:43;2.50;;;2.25;;
36189;SDS011;22232;50.914;13.858;2023-04-15T02:28:20;3.22;;;2.60;;
36189;SDS011;22232;50.914;13.858;2023-04-15T02:30:48;3.58;;;2.95;;
36189;SDS011;22232;50.914;13.858;2023-04-15T02:33:20;3.60;;;2.40;;
36189;SDS011;22232;50.914;13.858;2023-04-15T02:35:48;2.28;;;2.00;;
36189;SDS011;22232;50.914;13.858;2023-04-15T02:38:15;2.33;;;2.03;;
36189;SDS011;22232;50.914;13.858;2023-04-15T02:40:44;1.90;;;1.80;;
36189;SDS011;22232;50.914;13.858;2023-04-15T02:43:12;1.95;;;1.77;;
36189;SDS011;22232;50.914;13.858;2023-04-15T02:45:39;1.90;;;1.58;;
36189;SDS011;22232;50.914;13.858;2023-04-15T02:48:07;2.50;;;1.77;;
36189;SDS011;22232;50.914;13.858;2023-04-15T02:50:35;2.83;;;1.65;;
36189;SDS011;22232;50.914;13.858;2023-04-15T02:53:07;1.67;;;1.48;;
36189;SDS011;22232;50.914;13.858;2023-04-15T02:55:34;3.08;;;1.80;;
36189;SDS011;22232;50.914;13.858;2023-04-15T02:58:02;1.88;;;1.52;;
36189;SDS011;22232;50.914;13.858;2023-04-15T03:00:30;2.25;;;1.17;;
36189;SDS011;22232;50.914;13.858;2023-04-15T03:02:59;1.92;;;1.40;;
36189;SDS011;22232;50.914;13.858;2023-04-15T03:05:29;1.30;;;1.20;;
36189;SDS011;22232;50.914;13.858;2023-04-15T03:07:58;2.10;;;1.10;;
36189;SDS011;22232;50.914;13.858;2023-04-15T03:10:27;2.58;;;1.20;;
36189;SDS011;22232;50.914;13.858;2023-04-15T03:12:55;1.38;;;1.25;;
36189;SDS011;22232;50.914;13.858;2023-04-15T03:15:23;1.38;;;1.27;;
36189;SDS011;22232;50.914;13.858;2023-04-15T03:17:52;3.33;;;1.33;;
36189;SDS011;22232;50.914;13.858;2023-04-15T03:20:19;1.27;;;1.17;;
36189;SDS011;22232;50.914;13.858;2023-04-15T03:22:48;4.80;;;1.55;;
36189;SDS011;22232;50.914;13.858;2023-04-15T03:25:15;1.35;;;1.20;;
36189;SDS011;22232;50.914;13.858;2023-04-15T03:27:43;1.27;;;1.17;;
36189;SDS011;22232;50.914;13.858;2023-04-15T03:30:12;1.20;;;1.10;;
36189;SDS011;22232;50.914;13.858;2023-04-15T03:32:40;1.15;;;1.05;;
36189;SDS011;22232;50.914;13.858;2023-04-15T03:35:08;4.25;;;1.25;;
36189;SDS011;22232;50.914;13.858;2023-04-15T03:37:35;1.83;;;1.13;;
36189;SDS011;22232;50.914;13.858;2023-04-15T03:40:03;1.33;;;1.23;;
36189;SDS011;22232;50.914;13.858;2023-04-15T03:42:31;1.25;;;1.02;;
36189;SDS011;22232;50.914;13.858;2023-04-15T03:44:59;1.52;;;1.05;;
36189;SDS011;22232;50.914;13.858;2023-04-15T03:47:26;1.00;;;0.90;;
36189;SDS011;22232;50.914;13.858;2023-04-15T03:49:54;1.40;;;1.30;;
36189;SDS011;22232;50.914;13.858;2023-04-15T03:52:21;1.05;;;0.95;;
36189;SDS011;22232;50.914;13.858;2023-04-15T03:54:49;2.13;;;1.30;;
36189;SDS011;22232;50.914;13.858;2023-04-15T03:57:16;1.00;;;0.93;;
36189;SDS011;22232;50.914;13.858;2023-04-15T03:59:44;1.20;;;0.90;;
36189;SDS011;22232;50.914;13.858;2023-04-15T04:02:11;1.10;;;1.00;;
36189;SDS011;22232;50.914;13.858;2023-04-15T04:04:39;1.90;;;1.00;;
36189;SDS011;22232;50.914;13.858;2023-04-15T04:07:07;2.25;;;0.95;;
36189;SDS011;22232;50.914;13.858;2023-04-15T04:09:34;1.02;;;1.00;;
36189;SDS011;22232;50.914;13.858;2023-04-15T04:12:02;0.70;;;0.70;;
36189;SDS011;22232;50.914;13.858;2023-04-15T04:14:30;0.95;;;0.90;;
36189;SDS011;22232;50.914;13.858;2023-04-15T04:16:57;1.13;;;0.93;;
36189;SDS011;22232;50.914;13.858;2023-04-15T04:19:25;1.00;;;0.80;;
36189;SDS011;22232;50.914;13.858;2023-04-15T04:21:52;0.70;;;0.70;;
36189;SDS011;22232;50.914;13.858;2023-04-15T04:24:20;0.82;;;0.80;;
36189;SDS011;22232;50.914;13.858;2023-04-15T04:26:47;0.60;;;0.60;;
36189;SDS011;22232;50.914;13.858;2023-04-15T04:29:15;1.05;;;0.80;;
36189;SDS011;22232;50.914;13.858;2023-04-15T04:31:42;0.70;;;0.70;;
36189;SDS011;22232;50.914;13.858;2023-04-15T04:34:10;1.05;;;0.70;;
36189;SDS011;22232;50.914;13.858;2023-04-15T04:36:38;0.68;;;0.65;;
36189;SDS011;22232;50.914;13.858;2023-04-15T04:39:05;1.02;;;0.88;;
36189;SDS011;22232;50.914;13.858;2023-04-15T04:41:33;0.73;;;0.73;;
36189;SDS011;22232;50.914;13.858;2023-04-15T04:44:00;0.73;;;0.50;;
36189;SDS011;22232;50.914;13.858;2023-04-15T04:46:28;0.60;;;0.60;;
36189;SDS011;22232;50.914;13.858;2023-04-15T04:48:56;1.30;;;1.10;;
36189;SDS011;22232;50.914;13.858;2023-04-15T04:51:23;3.05;;;2.40;;
36189;SDS011;22232;50.914;13.858;2023-04-15T04:53:51;1.83;;;1.63;;
36189;SDS011;22232;50.914;13.858;2023-04-15T04:56:18;2.20;;;2.00;;
36189;SDS011;22232;50.914;13.858;2023-04-15T04:58:46;1.90;;;1.80;;
36189;SDS011;22232;50.914;13.858;2023-04-15T05:01:13;1.17;;;1.08;;
36189;SDS011;22232;50.914;13.858;2023-04-15T05:03:41;1.40;;;1.30;;
36189;SDS011;22232;50.914;13.858;2023-04-15T05:06:09;0.88;;;0.88;;
36189;SDS011;22232;50.914;13.858;2023-04-15T05:08:37;0.80;;;0.80;;
36189;SDS011;22232;50.914;13.858;2023-04-15T05:11:06;1.10;;;1.10;;
36189;SDS011;22232;50.914;13.858;2023-04-15T05:13:33;0.80;;;0.80;;
36189;SDS011;22232;50.914;13.858;2023-04-15T05:16:04;0.68;;;0.68;;
36189;SDS011;22232;50.914;13.858;2023-04-15T05:18:32;0.73;;;0.73;;
36189;SDS011;22232;50.914;13.858;2023-04-15T05:21:00;0.77;;;0.73;;
36189;SDS011;22232;50.914;13.858;2023-04-15T05:23:28;1.23;;;0.93;;
36189;SDS011;22232;50.914;13.858;2023-04-15T05:25:56;0.60;;;0.60;;
36189;SDS011;22232;50.914;13.858;2023-04-15T05:28:23;1.15;;;1.05;;
36189;SDS011;22232;50.914;13.858;2023-04-15T05:30:51;1.15;;;0.70;;
36189;SDS011;22232;50.914;13.858;2023-04-15T05:33:19;0.80;;;0.68;;
36189;SDS011;22232;50.914;13.858;2023-04-15T05:35:46;0.40;;;0.40;;
36189;SDS011;22232;50.914;13.858;2023-04-15T05:38:14;0.40;;;0.40;;
36189;SDS011;22232;50.914;13.858;2023-04-15T05:40:41;0.47;;;0.47;;
36189;SDS011;22232;50.914;13.858;2023-04-15T05:43:09;0.60;;;0.60;;
36189;SDS011;22232;50.914;13.858;2023-04-15T05:45:36;0.70;;;0.65;;
36189;SDS011;22232;50.914;13.858;2023-04-15T05:48:04;0.40;;;0.40;;
36189;SDS011;22232;50.914;13.858;2023-04-15T05:50:32;0.50;;;0.40;;
36189;SDS011;22232;50.914;13.858;2023-04-15T05:53:00;1.25;;;0.57;;
36189;SDS011;22232;50.914;13.858;2023-04-15T05:55:28;1.83;;;0.40;;
36189;SDS011;22232;50.914;13.858;2023-04-15T05:57:55;0.20;;;0.20;;
36189;SDS011;22232;50.914;13.858;2023-04-15T06:00:23;0.30;;;0.30;;
36189;SDS011;22232;50.914;13.858;2023-04-15T06:02:50;0.22;;;0.22;;
36189;SDS011;22232;50.914;13.858;2023-04-15T06:05:19;0.20;;;0.20;;
36189;SDS011;22232;50.914;13.858;2023-04-15T06:07:46;0.15;;;0.15;;
36189;SDS011;22232;50.914;13.858;2023-04-15T06:10:14;0.28;;;0.28;;
36189;SDS011;22232;50.914;13.858;2023-04-15T06:12:42;0.15;;;0.15;;
36189;SDS011;22232;50.914;13.858;2023-04-15T06:15:10;0.20;;;0.20;;
36189;SDS011;22232;50.914;13.858;2023-04-15T06:17:37;0.45;;;0.20;;
36189;SDS011;22232;50.914;13.858;2023-04-15T06:20:05;0.50;;;0.35;;
36189;SDS011;22232;50.914;13.858;2023-04-15T06:22:35;0.80;;;0.38;;
36189;SDS011;22232;50.914;13.858;2023-04-15T06:25:03;0.22;;;0.20;;
36189;SDS011;22232;50.914;13.858;2023-04-15T06:27:31;0.20;;;0.20;;
36189;SDS011;22232;50.914;13.858;2023-04-15T06:29:59;2.00;;;0.60;;
36189;SDS011;22232;50.914;13.858;2023-04-15T06:32:26;0.40;;;0.40;;
36189;SDS011;22232;50.914;13.858;2023-04-15T06:34:54;0.57;;;0.45;;
36189;SDS011;22232;50.914;13.858;2023-04-15T06:37:22;1.27;;;0.70;;
36189;SDS011;22232;50.914;13.858;2023-04-15T06:39:49;0.65;;;0.65;;
36189;SDS011;22232;50.914;13.858;2023-04-15T06:42:17;1.67;;;0.50;;
36189;SDS011;22232;50.914;13.858;2023-04-15T06:44:45;0.57;;;0.57;;
36189;SDS011;22232;50.914;13.858;2023-04-15T06:47:13;0.65;;;0.65;;
36189;SDS011;22232;50.914;13.858;2023-04-15T06:49:41;0.60;;;0.60;;
36189;SDS011;22232;50.914;13.858;2023-04-15T06:52:09;1.02;;;0.68;;
36189;SDS011;22232;50.914;13.858;2023-04-15T06:54:37;0.68;;;0.50;;
36189;SDS011;22232;50.914;13.858;2023-04-15T06:57:04;0.35;;;0.35;;
36189;SDS011;22232;50.914;13.858;2023-04-15T06:59:33;0.52;;;0.40;;
36189;SDS011;22232;50.914;13.858;2023-04-15T07:02:01;0.40;;;0.40;;
36189;SDS011;22232;50.914;13.858;2023-04-15T07:04:28;0.40;;;0.40;;
36189;SDS011;22232;50.914;13.858;2023-04-15T07:06:56;0.30;;;0.30;;
36189;SDS011;22232;50.914;13.858;2023-04-15T07:09:23;0.30;;;0.30;;
36189;SDS011;22232;50.914;13.858;2023-04-15T07:11:51;0.80;;;0.50;;
36189;SDS011;22232;50.914;13.858;2023-04-15T07:14:19;0.75;;;0.75;;
36189;SDS011;22232;50.914;13.858;2023-04-15T07:16:46;0.45;;;0.45;;
36189;SDS011;22232;50.914;13.858;2023-04-15T07:19:14;0.63;;;0.50;;
36189;SDS011;22232;50.914;13.858;2023-04-15T07:21:42;2.15;;;0.80;;
36189;SDS011;22232;50.914;13.858;2023-04-15T07:24:09;0.60;;;0.60;;
36189;SDS011;22232;50.914;13.858;2023-04-15T07:26:37;0.60;;;0.60;;
36189;SDS011;22232;50.914;13.858;2023-04-15T07:29:04;0.93;;;0.93;;
36189;SDS011;22232;50.914;13.858;2023-04-15T07:31:32;0.50;;;0.50;;
36189;SDS011;22232;50.914;13.858;2023-04-15T07:34:00;0.98;;;0.70;;
36189;SDS011;22232;50.914;13.858;2023-04-15T07:36:27;0.35;;;0.30;;
36189;SDS011;22232;50.914;13.858;2023-04-15T07:38:55;0.95;;;0.50;;
36189;SDS011;22232;50.914;13.858;2023-04-15T07:41:23;0.50;;;0.40;;
36189;SDS011;22232;50.914;13.858;2023-04-15T07:43:51;0.60;;;0.50;;
36189;SDS011;22232;50.914;13.858;2023-04-15T07:46:19;2.30;;;0.57;;
36189;SDS011;22232;50.914;13.858;2023-04-15T07:48:47;0.82;;;0.50;;
36189;SDS011;22232;50.914;13.858;2023-04-15T07:51:14;1.15;;;0.50;;
36189;SDS011;22232;50.914;13.858;2023-04-15T07:53:42;1.05;;;0.63;;
36189;SDS011;22232;50.914;13.858;2023-04-15T07:56:10;1.13;;;0.50;;
36189;SDS011;22232;50.914;13.858;2023-04-15T07:58:38;0.40;;;0.40;;
36189;SDS011;22232;50.914;13.858;2023-04-15T08:01:06;0.30;;;0.30;;
36189;SDS011;22232;50.914;13.858;2023-04-15T08:03:33;0.20;;;0.20;;
36189;SDS011;22232;50.914;13.858;2023-04-15T08:06:01;4.05;;;0.30;;
36189;SDS011;22232;50.914;13.858;2023-04-15T08:08:29;1.88;;;1.52;;
36189;SDS011;22232;50.914;13.858;2023-04-15T08:10:57;3.78;;;3.45;;
36189;SDS011;22232;50.914;13.858;2023-04-15T08:13:25;4.95;;;4.45;;
36189;SDS011;22232;50.914;13.858;2023-04-15T08:16:16;5.47;;;4.78;;
36189;SDS011;22232;50.914;13.858;2023-04-15T08:18:44;6.32;;;4.80;;
36189;SDS011;22232;50.914;13.858;2023-04-15T08:21:12;8.50;;;4.70;;
36189;SDS011;22232;50.914;13.858;2023-04-15T08:23:40;5.78;;;5.18;;
36189;SDS011;22232;50.914;13.858;2023-04-15T08:26:07;5.57;;;4.90;;
36189;SDS011;22232;50.914;13.858;2023-04-15T08:28:36;7.65;;;5.38;;
36189;SDS011;22232;50.914;13.858;2023-04-15T08:31:06;7.43;;;5.20;;
36189;SDS011;22232;50.914;13.858;2023-04-15T08:33:34;7.10;;;5.50;;
36189;SDS011;22232;50.914;13.858;2023-04-15T08:36:02;6.25;;;5.35;;
36189;SDS011;22232;50.914;13.858;2023-04-15T08:38:30;6.25;;;5.47;;
36189;SDS011;22232;50.914;13.858;2023-04-15T08:40:59;5.68;;;5.00;;
36189;SDS011;22232;50.914;13.858;2023-04-15T08:43:32;6.53;;;4.97;;
36189;SDS011;22232;50.914;13.858;2023-04-15T08:46:01;5.40;;;4.90;;
36189;SDS011;22232;50.914;13.858;2023-04-15T08:48:31;7.50;;;5.85;;
36189;SDS011;22232;50.914;13.858;2023-04-15T08:51:01;6.75;;;5.65;;
36189;SDS011;22232;50.914;13.858;2023-04-15T08:53:29;5.78;;;5.18;;
36189;SDS011;22232;50.914;13.858;2023-04-15T08:55:57;6.00;;;5.35;;
36189;SDS011;22232;50.914;13.858;2023-04-15T08:58:30;6.60;;;5.90;;
36189;SDS011;22232;50.914;13.858;2023-04-15T09:00:58;5.25;;;4.75;;
36189;SDS011;22232;50.914;13.858;2023-04-15T09:03:27;5.15;;;4.40;;
36189;SDS011;22232;50.914;13.858;2023-04-15T09:05:55;5.18;;;4.68;;
36189;SDS011;22232;50.914;13.858;2023-04-15T09:08:24;5.70;;;5.10;;
36189;SDS011;22232;50.914;13.858;2023-04-15T09:10:52;5.10;;;4.60;;
36189;SDS011;22232;50.914;13.858;2023-04-15T09:13:20;5.53;;;3.95;;
36189;SDS011;22232;50.914;13.858;2023-04-15T09:15:48;4.70;;;4.20;;
36189;SDS011;22232;50.914;13.858;2023-04-15T09:18:28;4.70;;;4.15;;
36189;SDS011;22232;50.914;13.858;2023-04-15T09:23:32;4.80;;;4.00;;
36189;SDS011;22232;50.914;13.858;2023-04-15T09:26:03;5.03;;;4.07;;
36189;SDS011;22232;50.914;13.858;2023-04-15T09:28:31;4.13;;;3.60;;
36189;SDS011;22232;50.914;13.858;2023-04-15T09:30:59;5.55;;;3.78;;
36189;SDS011;22232;50.914;13.858;2023-04-15T09:33:28;4.60;;;3.63;;
36189;SDS011;22232;50.914;13.858;2023-04-15T09:38:33;5.13;;;4.18;;
36189;SDS011;22232;50.914;13.858;2023-04-15T09:41:02;4.93;;;3.92;;
36189;SDS011;22232;50.914;13.858;2023-04-15T09:43:36;4.90;;;4.15;;
36189;SDS011;22232;50.914;13.858;2023-04-15T09:46:05;3.60;;;3.13;;
36189;SDS011;22232;50.914;13.858;2023-04-15T09:48:33;4.40;;;3.42;;
36189;SDS011;22232;50.914;13.858;2023-04-15T09:51:00;5.43;;;4.00;;
36189;SDS011;22232;50.914;13.858;2023-04-15T09:53:28;5.47;;;3.78;;
36189;SDS011;22232;50.914;13.858;2023-04-15T09:55:58;3.45;;;3.15;;
36189;SDS011;22232;50.914;13.858;2023-04-15T09:58:30;3.10;;;2.80;;
36189;SDS011;22232;50.914;13.858;2023-04-15T10:01:05;3.63;;;2.88;;
36189;SDS011;22232;50.914;13.858;2023-04-15T10:03:34;3.10;;;2.80;;
36189;SDS011;22232;50.914;13.858;2023-04-15T10:06:04;4.47;;;3.15;;
36189;SDS011;22232;50.914;13.858;2023-04-15T10:08:33;2.92;;;2.58;;
36189;SDS011;22232;50.914;13.858;2023-04-15T10:11:01;3.20;;;2.90;;
36189;SDS011;22232;50.914;13.858;2023-04-15T10:13:30;3.33;;;2.70;;
36189;SDS011;22232;50.914;13.858;2023-04-15T10:16:16;2.95;;;2.70;;
36189;SDS011;22232;50.914;13.858;2023-04-15T10:18:47;3.13;;;2.55;;
36189;SDS011;22232;50.914;13.858;2023-04-15T10:21:20;2.88;;;2.55;;
36189;SDS011;22232;50.914;13.858;2023-04-15T10:23:49;3.28;;;2.78;;
36189;SDS011;22232;50.914;13.858;2023-04-15T10:26:17;3.15;;;2.65;;
36189;SDS011;22232;50.914;13.858;2023-04-15T10:28:45;3.45;;;3.10;;
36189;SDS011;22232;50.914;13.858;2023-04-15T10:31:14;3.60;;;2.80;;
36189;SDS011;22232;50.914;13.858;2023-04-15T10:33:43;3.13;;;2.83;;
36189;SDS011;22232;50.914;13.858;2023-04-15T10:36:12;2.85;;;2.65;;
36189;SDS011;22232;50.914;13.858;2023-04-15T10:38:40;3.60;;;3.28;;
36189;SDS011;22232;50.914;13.858;2023-04-15T10:46:18;3.63;;;2.80;;
36189;SDS011;22232;50.914;13.858;2023-04-15T10:51:44;3.30;;;2.83;;
36189;SDS011;22232;50.914;13.858;2023-04-15T10:59:35;3.70;;;3.30;;
36189;SDS011;22232;50.914;13.858;2023-04-15T11:02:05;4.18;;;3.33;;
36189;SDS011;22232;50.914;13.858;2023-04-15T11:04:52;4.07;;;3.33;;
36189;SDS011;22232;50.914;13.858;2023-04-15T11:12:40;4.22;;;2.90;;
36189;SDS011;22232;50.914;13.858;2023-04-15T11:20:43;5.38;;;2.97;;
36189;SDS011;22232;50.914;13.858;2023-04-15T11:23:13;4.03;;;3.08;;
36189;SDS011;22232;50.914;13.858;2023-04-15T11:25:42;3.03;;;2.58;;
36189;SDS011;22232;50.914;13.858;2023-04-15T11:28:10;3.38;;;2.75;;
36189;SDS011;22232;50.914;13.858;2023-04-15T11:30:39;3.10;;;2.80;;
36189;SDS011;22232;50.914;13.858;2023-04-15T11:33:10;2.90;;;2.70;;
36189;SDS011;22232;50.914;13.858;2023-04-15T11:35:39;5.40;;;3.30;;
36189;SDS011;22232;50.914;13.858;2023-04-15T11:38:08;3.45;;;3.15;;
36189;SDS011;22232;50.914;13.858;2023-04-15T11:40:40;5.63;;;3.55;;
36189;SDS011;22232;50.914;13.858;2023-04-15T11:43:13;3.95;;;2.60;;
36189;SDS011;22232;50.914;13.858;2023-04-15T11:45:52;3.28;;;2.97;;
36189;SDS011;22232;50.914;13.858;2023-04-15T11:48:28;4.35;;;3.33;;
36189;SDS011;22232;50.914;13.858;2023-04-15T11:50:58;3.33;;;2.78;;
36189;SDS011;22232;50.914;13.858;2023-04-15T11:53:41;3.40;;;2.97;;
36189;SDS011;22232;50.914;13.858;2023-04-15T11:56:19;3.33;;;2.28;;
36189;SDS011;22232;50.914;13.858;2023-04-15T11:58:55;2.38;;;1.88;;
36189;SDS011;22232;50.914;13.858;2023-04-15T12:01:34;2.08;;;1.80;;
36189;SDS011;22232;50.914;13.858;2023-04-15T12:04:12;2.28;;;1.80;;
36189;SDS011;22232;50.914;13.858;2023-04-15T12:06:41;1.98;;;1.63;;
36189;SDS011;22232;50.914;13.858;2023-04-15T12:09:09;2.28;;;1.63;;
36189;SDS011;22232;50.914;13.858;2023-04-15T12:11:42;2.25;;;1.85;;
36189;SDS011;22232;50.914;13.858;2023-04-15T12:17:03;1.70;;;1.58;;
36189;SDS011;22232;50.914;13.858;2023-04-15T12:19:36;2.28;;;1.80;;
36189;SDS011;22232;50.914;13.858;2023-04-15T12:22:05;3.17;;;1.90;;
36189;SDS011;22232;50.914;13.858;2023-04-15T12:24:35;2.47;;;1.95;;
36189;SDS011;22232;50.914;13.858;2023-04-15T12:27:07;3.13;;;1.85;;
36189;SDS011;22232;50.914;13.858;2023-04-15T12:29:37;3.00;;;2.08;;
36189;SDS011;22232;50.914;13.858;2023-04-15T12:32:13;2.88;;;1.77;;
36189;SDS011;22232;50.914;13.858;2023-04-15T12:34:49;1.85;;;1.50;;
36189;SDS011;22232;50.914;13.858;2023-04-15T12:37:18;2.08;;;1.88;;
36189;SDS011;22232;50.914;13.858;2023-04-15T12:39:46;2.03;;;1.45;;
36189;SDS011;22232;50.914;13.858;2023-04-15T12:42:15;3.53;;;2.00;;
36189;SDS011;22232;50.914;13.858;2023-04-15T12:44:44;2.30;;;1.60;;
36189;SDS011;22232;50.914;13.858;2023-04-15T12:47:12;2.20;;;1.95;;
36189;SDS011;22232;50.914;13.858;2023-04-15T12:53:03;2.20;;;2.00;;
36189;SDS011;22232;50.914;13.858;2023-04-15T12:55:30;2.78;;;2.13;;
36189;SDS011;22232;50.914;13.858;2023-04-15T12:57:58;3.83;;;2.17;;
36189;SDS011;22232;50.914;13.858;2023-04-15T13:00:25;2.80;;;2.00;;
36189;SDS011;22232;50.914;13.858;2023-04-15T13:02:53;1.88;;;1.60;;
36189;SDS011;22232;50.914;13.858;2023-04-15T13:05:21;3.50;;;2.00;;
36189;SDS011;22232;50.914;13.858;2023-04-15T13:07:48;1.95;;;1.40;;
36189;SDS011;22232;50.914;13.858;2023-04-15T13:10:16;3.65;;;1.65;;
36189;SDS011;22232;50.914;13.858;2023-04-15T13:12:43;1.55;;;1.45;;
36189;SDS011;22232;50.914;13.858;2023-04-15T13:15:13;1.50;;;1.40;;
36189;SDS011;22232;50.914;13.858;2023-04-15T13:17:40;2.08;;;1.23;;
36189;SDS011;22232;50.914;13.858;2023-04-15T13:20:08;2.92;;;1.50;;
36189;SDS011;22232;50.914;13.858;2023-04-15T13:22:36;1.25;;;1.15;;
36189;SDS011;22232;50.914;13.858;2023-04-15T13:25:04;1.33;;;1.20;;
36189;SDS011;22232;50.914;13.858;2023-04-15T13:27:33;1.42;;;1.20;;
36189;SDS011;22232;50.914;13.858;2023-04-15T13:30:00;1.75;;;1.30;;
36189;SDS011;22232;50.914;13.858;2023-04-15T13:32:28;1.50;;;1.20;;
36189;SDS011;22232;50.914;13.858;2023-04-15T13:34:55;1.42;;;1.17;;
36189;SDS011;22232;50.914;13.858;2023-04-15T13:37:26;1.55;;;1.35;;
36189;SDS011;22232;50.914;13.858;2023-04-15T13:39:55;1.95;;;1.58;;
36189;SDS011;22232;50.914;13.858;2023-04-15T13:42:23;1.17;;;1.08;;
36189;SDS011;22232;50.914;13.858;2023-04-15T13:44:51;1.75;;;1.30;;
36189;SDS011;22232;50.914;13.858;2023-04-15T13:47:18;1.75;;;1.33;;
36189;SDS011;22232;50.914;13.858;2023-04-15T13:49:46;1.98;;;1.10;;
36189;SDS011;22232;50.914;13.858;2023-04-15T13:52:14;1.40;;;1.30;;
36189;SDS011;22232;50.914;13.858;2023-04-15T13:54:41;3.72;;;1.23;;
36189;SDS011;22232;50.914;13.858;2023-04-15T13:57:09;1.38;;;1.27;;
36189;SDS011;22232;50.914;13.858;2023-04-15T13:59:36;2.55;;;1.30;;
36189;SDS011;22232;50.914;13.858;2023-04-15T14:02:04;3.47;;;1.40;;
36189;SDS011;22232;50.914;13.858;2023-04-15T14:04:32;1.20;;;1.10;;
36189;SDS011;22232;50.914;13.858;2023-04-15T14:07:00;1.45;;;1.35;;
36189;SDS011;22232;50.914;13.858;2023-04-15T14:09:30;2.72;;;1.40;;
36189;SDS011;22232;50.914;13.858;2023-04-15T14:11:57;1.30;;;1.20;;
36189;SDS011;22232;50.914;13.858;2023-04-15T14:14:26;1.10;;;1.00;;
36189;SDS011;22232;50.914;13.858;2023-04-15T14:16:54;1.38;;;1.27;;
36189;SDS011;22232;50.914;13.858;2023-04-15T14:19:23;1.73;;;1.48;;
36189;SDS011;22232;50.914;13.858;2023-04-15T14:21:50;1.30;;;1.10;;
36189;SDS011;22232;50.914;13.858;2023-04-15T14:24:18;1.27;;;1.10;;
36189;SDS011;22232;50.914;13.858;2023-04-15T14:26:45;1.50;;;1.40;;
36189;SDS011;22232;50.914;13.858;2023-04-15T14:29:13;1.73;;;1.23;;
36189;SDS011;22232;50.914;13.858;2023-04-15T14:31:41;1.55;;;1.42;;
36189;SDS011;22232;50.914;13.858;2023-04-15T14:34:30;1.48;;;1.38;;
36189;SDS011;22232;50.914;13.858;2023-04-15T14:36:58;3.35;;;1.42;;
36189;SDS011;22232;50.914;13.858;2023-04-15T14:39:25;1.90;;;1.40;;
36189;SDS011;22232;50.914;13.858;2023-04-15T14:41:53;1.48;;;1.38;;
36189;SDS011;22232;50.914;13.858;2023-04-15T14:44:21;2.03;;;1.83;;
36189;SDS011;22232;50.914;13.858;2023-04-15T14:46:50;3.63;;;1.88;;
36189;SDS011;22232;50.914;13.858;2023-04-15T14:49:18;2.60;;;2.22;;
36189;SDS011;22232;50.914;13.858;2023-04-15T14:51:45;1.98;;;1.65;;
36189;SDS011;22232;50.914;13.858;2023-04-15T14:54:13;1.83;;;1.60;;
36189;SDS011;22232;50.914;13.858;2023-04-15T14:56:41;2.28;;;1.85;;
36189;SDS011;22232;50.914;13.858;2023-04-15T14:59:08;2.30;;;1.90;;
36189;SDS011;22232;50.914;13.858;2023-04-15T15:01:36;1.65;;;1.55;;
36189;SDS011;22232;50.914;13.858;2023-04-15T15:04:04;2.50;;;1.95;;
36189;SDS011;22232;50.914;13.858;2023-04-15T15:06:31;2.20;;;2.00;;
36189;SDS011;22232;50.914;13.858;2023-04-15T15:08:59;2.28;;;2.08;;
36189;SDS011;22232;50.914;13.858;2023-04-15T15:11:28;2.17;;;1.98;;
36189;SDS011;22232;50.914;13.858;2023-04-15T15:13:55;2.80;;;2.15;;
36189;SDS011;22232;50.914;13.858;2023-04-15T15:16:24;2.40;;;2.10;;
36189;SDS011;22232;50.914;13.858;2023-04-15T15:18:52;2.30;;;2.10;;